• Join FlightAware (Why Join?)
  • Login
  • US Flag 
09:03AM EDT


 

Airport Tracker/Info


-or-


 

Live Flight TrackerFlight Track Log ✈ SWA311 ✈ 14-Apr-2013 ✈ KBWI - KRDU

Flight Track Log - Related Links

Times and Time Zones

All times are in EDT time to prevent confusion due to time zone crossing. See the SWA311 flight status page for this flight to view local times or setup timezone preferences in your user account.

Time Position Orientation Groundspeed Altitude Reporting Facility
EDT Latitude Longitude Course Direction KTS MPH feet Rate Location/Type
07:50PM 39.1667 -76.7500 184° South 199 229 2,500  Level Potomac TRACON
07:52PM 39.0875 -76.6961 152° Southeast 251 289 5,800 1,740 Climbing Washington Center
07:53PM 39.0297 -76.6231 136° Southeast 275 316 7,200 2,040 Climbing Washington Center
07:54PM 38.9722 -76.5447 133° Southeast 294 338 9,900 2,520 Climbing Washington Center
07:55PM 38.9019 -76.4611 137° Southeast 313 360 12,300 2,100 Climbing Washington Center
07:56PM 38.6670 -76.7083 184° South  Level FlightAware Approximate
07:56PM 38.8142 -76.4922 195° South 285 328 14,100  Level Washington Center
07:57PM 38.7383 -76.5711 219° Southwest 291 335 14,200 1,500 Climbing Washington Center
07:58PM 38.6608 -76.6392 214° Southwest 326 375 17,200 3,180 Climbing Washington Center
07:59PM 38.5706 -76.6936 205° Southwest 350 403 20,600 2,400 Climbing Washington Center
08:00PM 38.4722 -76.7294 196° South 360 414 22,000 660 Climbing Washington Center
08:01PM 38.3678 -76.7622 194° South 372 428 22,000  Level Washington Center
08:02PM 38.2547 -76.8000 195° South 384 442 22,000  Level Washington Center
08:03PM 38.1542 -76.8356 196° South 384 442 22,000  Level Washington Center
08:04PM 38.0497 -76.8706 195° South 384 442 22,000  Level Washington Center
08:05PM 37.9492 -76.9058 195° South 384 442 22,000  Level Washington Center
08:06PM 37.8467 -76.9408 195° South 379 436 22,000  Level Washington Center
08:07PM 37.7544 -76.9733 196° South 379 436 22,000  Level Washington Center
08:08PM 37.6561 -77.0056 195° South 374 430 22,000  Level Washington Center
08:09PM 37.5533 -77.0406 195° South 374 430 22,000  Level Washington Center
08:10PM 37.4403 -77.0775 195° South 386 444 22,000 -180 Level Washington Center
08:11PM 37.3419 -77.1122 196° South 375 432 21,700 -720 Descending Washington Center
08:12PM 37.2536 -77.1678 207° Southwest 363 418 20,600 -900 Descending Washington Center
08:13PM 37.1672 -77.2261 208° Southwest 357 411 20,000 -300 Descending Washington Center
08:14PM 37.0872 -77.2869 211° Southwest 352 405 20,000  Level Washington Center
08:15PM 37.0050 -77.3475 210° Southwest 347 399 20,000  Level Washington Center
08:16PM 36.9206 -77.4106 211° Southwest 347 399 20,000  Level Washington Center
08:17PM 36.8422 -77.4839 217° Southwest 352 405 20,000  Level Washington Center
08:18PM 36.7658 -77.5625 220° Southwest 357 411 20,000  Level Washington Center
08:19PM 36.6872 -77.6433 220° Southwest 362 417 20,000  Level Washington Center
08:20PM 36.6128 -77.7217 220° Southwest 362 417 20,000 -300 Level Washington Center
08:21PM 36.5383 -77.7969 219° Southwest 357 411 19,400 -1,260 Descending Washington Center
08:22PM 36.4639 -77.8725 219° Southwest 357 411 17,500 -2,100 Descending Washington Center
08:23PM 36.3939 -77.9428 219° Southwest 352 405 15,300 -2,160 Descending Washington Center
08:23PM 36.3661 -77.9678 216° Southwest 332 382 14,600 -2,040 Descending Washington Center
08:24PM 36.3236 -78.0153 222° Southwest 346 398 13,300 -2,100 Descending Washington Center
08:25PM 36.2789 -78.0578 217° Southwest 328 377 12,100 -2,040 Descending Washington Center
08:25PM 36.2531 -78.0878 223° Southwest 335 386 11,300 -1,800 Descending Washington Center
08:26PM 36.2106 -78.1278 217° Southwest 319 367 10,300 -1,200 Descending Washington Center
08:26PM 36.1936 -78.1478 224° Southwest 330 380 10,100 -900 Descending Washington Center
08:27PM 36.1569 -78.1981 228° Southwest 282 325 9,400 -1,320 Descending Washington Center
08:27PM 36.1436 -78.2336 245° Southwest 300 345 8,800 -1,500 Descending Washington Center
08:28PM 36.1194 -78.2867 241° Southwest 274 315 7,900 -1,320 Descending Washington Center
08:28PM 36.1106 -78.3097 244° Southwest 286 329 7,500 -1,380 Descending Washington Center
08:29PM 36.0756 -78.3778 238° Southwest 271 312 6,400 -1,440 Descending Washington Center
08:29PM 36.0711 -78.4008 257° West 274 315 6,100 -1,440 Descending Washington Center
08:30PM 36.0425 -78.4564 238° Southwest 263 303 5,000 -1,200 Descending Washington Center
08:30PM 36.0358 -78.4764 248° West 274 315 4,900 -120 Descending Washington Center
08:31PM 36.0117 -78.5269 239° Southwest 226 260 4,900 -300 Level Washington Center
08:31PM 36.0069 -78.5447 252° West 252 290 4,600 -900 Descending Washington Center
08:32PM 35.9806 -78.6056 242° Southwest 225 259 3,800 -900 Descending Washington Center
08:33PM 35.9583 -78.6508 239° Southwest 202 232 3,100 -900 Descending Washington Center
08:33PM 35.9539 -78.6661 250° West 215 247 2,900 -840 Descending Washington Center
08:34PM 35.9361 -78.7064 241° Southwest 179 206 2,300 -900 Descending Washington Center
08:35PM 35.9103 -78.7386 225° Southwest 129 148 1,400 -840 Descending Washington Center
08:36PM 35.8864 -78.7711 228° Southwest 124 143 700 -720 Descending Washington Center
08:38PM 35.8776 -78.7875 North  Level Estimated